Weber Basin Water
2837 E Hwy 193, Layton
Last Weather Update:12/31/2011
Date
ETo
ETc
Rain
Irrigation
Req
Temp
Max
Temp
Min
Temp
Avg
Avg RH
Avg Wind
Avg Solar
inches
inches
incehs
inches
F
F
F
%
%
watts/m2
11/01/2011 0.03" 0.00" 0.60" -0.60" 50.1° 30.7° 39.0° 65.5% 3.0 MPH 68.7w/m2
11/02/2011 0.06" 0.00" 0.00" 0.00" 44.1° 26.2° 34.0° 49.2% 2.2 MPH 151.3w/m2
11/03/2011 0.06" 0.00" 0.00" 0.00" 52.9° 26.8° 38.4° 42.5% 1.8 MPH 129.2w/m2
11/04/2011 0.07" 0.00" 0.04" -0.04" 58.2° 30.8° 44.9° 40.8% 3.2 MPH 88.1w/m2
11/05/2011 0.01" 0.00" 0.00" 0.00" 32.6° 27.0° 29.6° 77.2% 0.1 MPH 12.3w/m2
11/06/2011 0.03" 0.00" 0.36" -0.36" 42.4° 24.4° 32.9° 62.4% 1.3 MPH 63.4w/m2
11/07/2011 0.05" 0.00" 0.00" 0.00" 43.7° 27.5° 34.7° 64.4% 1.7 MPH 134.5w/m2
11/08/2011 0.04" 0.00" 0.00" 0.00" 40.2° 24.3° 30.6° 66.1% 1.8 MPH 131.4w/m2
11/09/2011 0.05" 0.00" 0.00" 0.00" 42.5° 22.6° 30.6° 58.7% 1.3 MPH 135.3w/m2
11/10/2011 0.05" 0.00" 0.00" 0.00" 50.8° 24.6° 34.6° 53.3% 1.4 MPH 132.7w/m2
11/11/2011 0.04" 0.00" 0.00" 0.00" 49.0° 26.6° 36.9° 46.5% 1.0 MPH 93.4w/m2
11/12/2011 0.02" 0.00" 0.15" -0.15" 44.5° 28.3° 36.9° 69.6% 2.8 MPH 6.9w/m2
11/13/2011 0.04" 0.00" 0.43" -0.43" 48.7° 31.2° 38.1° 71.8% 2.8 MPH 78.3w/m2
11/14/2011 0.07" 0.00" 0.00" 0.00" 52.4° 37.3° 44.3° 31.0% 2.9 MPH 95.8w/m2
11/15/2011 0.06" 0.00" 0.00" 0.00" 46.9° 32.3° 40.2° 36.9% 2.6 MPH 119.3w/m2
11/16/2011 0.05" 0.00" 0.00" 0.00" 43.7° 25.4° 34.4° 43.8% 1.9 MPH 121.3w/m2
11/17/2011 0.05" 0.00" 0.00" 0.00" 52.6° 30.6° 42.3° 33.7% 3.0 MPH 59.2w/m2
11/18/2011 0.04" 0.00" 0.00" 0.00" 50.7° 30.9° 40.9° 57.5% 4.3 MPH 18.3w/m2
11/19/2011 0.03" 0.00" 0.27" -0.27" 38.1° 25.9° 30.4° 73.2% 0.5 MPH 72.1w/m2
11/20/2011 0.02" 0.00" 0.00" 0.00" 37.9° 22.8° 30.7° 73.5% 0.8 MPH 47.5w/m2
11/21/2011 0.02" 0.00" 0.14" -0.14" 41.6° 31.0° 35.7° 87.5% 1.3 MPH 32.3w/m2
11/22/2011 0.04" 0.00" 0.00" 0.00" 52.9° 29.8° 38.6° 69.2% 1.4 MPH 96.7w/m2
11/23/2011 0.04" 0.00" 0.00" 0.00" 54.8° 33.4° 43.1° 45.8% 1.4 MPH 99.6w/m2
11/24/2011 0.04" 0.00" 0.00" 0.00" 55.0° 40.7° 46.5° 38.9% 1.7 MPH 61.7w/m2
11/25/2011 0.05" 0.00" 0.00" 0.00" 48.2° 28.9° 40.4° 42.4% 4.1 MPH 57.6w/m2
11/26/2011 0.04" 0.00" 0.00" 0.00" 42.3° 21.6° 30.5° 41.5% 1.7 MPH 114.3w/m2
11/27/2011 0.04" 0.00" 0.00" 0.00" 49.1° 23.7° 33.4° 44.2% 1.2 MPH 110.3w/m2
11/28/2011 0.03" 0.00" 0.00" 0.00" 45.1° 28.6° 35.9° 55.5% 1.5 MPH 66.8w/m2
11/29/2011 0.04" 0.00" 0.00" 0.00" 50.6° 26.9° 36.8° 61.5% 1.0 MPH 104.4w/m2
11/30/2011 0.03" 0.00" 0.04" -0.04" 43.9° 32.2° 36.3° 62.7% 2.8 MPH 55.2w/m2
Totals: 1.23" 0.00" 2.03" -2.03" 58.2° 21.6° 36.7° 55.5% 1.9 MPH 85.3w/m2